Decoded Metar for RPVM (MASBATE in PHILIPPINES) (IATA:NOP) | Meteo·Mobile Aviation Weather
aviador You're here:

RPVM Decoded Metar

MASBATE in PHILIPPINES
Report Time2019-03-22 13:00:00
UTC Time2019-03-22 13:59:44
Flight Rules vfr VFR
Wind350° at 03 kt
W.Decomp.*RWY 04: 2.0 kt HW 2.3 kt LCW
W.Rank350° ranks 9
Current wind is below 350° avg. (5.1)
Visibility9999 m
Phenomena:N/A
Clouds:Few 020 Hf
Expected CloudBase > 2,000 ft AGL from Temp-Dew spread
CeilingNone
Temp27°C (ISA +12)
Dew Point22°C (74% RH)
Heat Index29.2°C
QNH1012 hPa
Density Alt1,804 ft
Elevation33 ft
Report Wrong Elevation
Raw Report
METAR RPVM 221300Z 35003KT 9999 FEW020 27/22 Q1012 RMK A2988=

Extra information for RPVM:More info

Metar Taf Metar & Taf Last 4 Metars F.Rules Stats Wind Profile Meteogram Temp Stats Airport Information Weather charts Add Link Nearby VenuesMetar ALERT Operation Metar Decoded Social comments